createdAt,value
2018-05-06T00:00:46.901Z,40.60
2018-05-06T00:03:14.697Z,42.90
2018-05-06T00:05:43.350Z,44.00
2018-05-06T00:08:11.221Z,44.10
2018-05-06T00:10:39.083Z,42.80
2018-05-06T00:13:06.950Z,42.90
2018-05-06T00:15:34.920Z,42.30
2018-05-06T00:18:02.785Z,41.40
2018-05-06T00:20:30.653Z,42.40
2018-05-06T00:22:59.339Z,41.30
2018-05-06T00:25:27.205Z,41.40
2018-05-06T00:27:55.071Z,40.80
2018-05-06T00:30:22.937Z,43.30
2018-05-06T00:32:50.804Z,43.00
2018-05-06T00:35:18.775Z,42.20
2018-05-06T00:37:46.640Z,42.20
2018-05-06T00:40:14.505Z,41.00
2018-05-06T00:42:42.475Z,41.60
2018-05-06T00:45:10.341Z,42.10
2018-05-06T00:47:38.208Z,42.20
2018-05-06T00:50:06.077Z,41.60
2018-05-06T00:52:33.941Z,42.30
2018-05-06T00:55:01.812Z,42.90
2018-05-06T00:57:29.674Z,42.50
2018-05-06T00:59:57.541Z,41.80
2018-05-06T01:02:25.416Z,43.40
2018-05-06T01:04:53.276Z,42.90
2018-05-06T01:07:21.243Z,42.80
2018-05-06T01:09:49.109Z,43.90
2018-05-06T01:12:16.976Z,42.30
2018-05-06T01:14:44.842Z,43.00
2018-05-06T01:17:12.712Z,43.80
2018-05-06T01:19:40.576Z,44.60
2018-05-06T01:22:08.520Z,44.80
2018-05-06T01:24:36.413Z,43.60
2018-05-06T01:27:04.381Z,43.20
2018-05-06T01:29:32.249Z,44.60
2018-05-06T01:32:00.118Z,45.30
2018-05-06T01:34:27.981Z,43.90
2018-05-06T01:36:55.849Z,44.40
2018-05-06T01:39:23.713Z,45.30
2018-05-06T01:41:51.478Z,43.60
2018-05-06T01:44:19.447Z,42.20
2018-05-06T01:46:47.312Z,43.00
2018-05-06T01:49:15.180Z,44.70
2018-05-06T01:51:43.046Z,45.60
2018-05-06T01:54:12.002Z,43.70
2018-05-06T01:56:41.377Z,44.40
2018-05-06T01:59:11.794Z,46.00
2018-05-06T02:01:40.453Z,45.70
2018-05-06T02:04:08.318Z,45.70
2018-05-06T02:06:36.184Z,43.50
2018-05-06T02:09:04.257Z,45.50
2018-05-06T02:11:32.122Z,44.80
2018-05-06T02:13:59.989Z,45.40
2018-05-06T02:16:27.855Z,46.60
2018-05-06T02:18:55.723Z,45.30
2018-05-06T02:21:23.517Z,47.10
2018-05-06T02:23:51.459Z,48.30
2018-05-06T02:26:19.323Z,46.50
2018-05-06T02:28:47.188Z,46.20
2018-05-06T02:31:15.055Z,46.10
2018-05-06T02:33:42.923Z,47.60
2018-05-06T02:36:10.789Z,46.30
2018-05-06T02:38:38.658Z,45.70
2018-05-06T02:41:06.521Z,47.70
2018-05-06T02:43:34.389Z,46.10
2018-05-06T02:46:02.259Z,45.50
2018-05-06T02:48:30.226Z,46.30
2018-05-06T02:50:58.096Z,45.20
2018-05-06T02:53:25.856Z,46.30
2018-05-06T02:55:53.721Z,45.60
2018-05-06T02:58:21.588Z,46.30
2018-05-06T03:00:49.454Z,45.30
2018-05-06T03:03:17.320Z,47.20
2018-05-06T03:05:45.217Z,44.90
2018-05-06T03:08:13.872Z,45.50
2018-05-06T03:10:41.735Z,45.40
2018-05-06T03:13:09.606Z,45.60
2018-05-06T03:15:37.472Z,43.90
2018-05-06T03:18:05.339Z,44.70
2018-05-06T03:20:33.205Z,43.80
2018-05-06T03:23:01.072Z,46.10
2018-05-06T03:25:29.553Z,47.00
2018-05-06T03:27:57.419Z,46.40
2018-05-06T03:30:25.291Z,46.90
2018-05-06T03:32:53.155Z,45.70
2018-05-06T03:35:21.022Z,46.30
2018-05-06T03:37:48.887Z,45.50
2018-05-06T03:40:16.751Z,46.80
2018-05-06T03:42:44.618Z,46.50
2018-05-06T03:45:12.485Z,46.10
2018-05-06T03:47:40.351Z,46.00
2018-05-06T03:50:08.222Z,46.90
2018-05-06T03:52:36.186Z,48.60
2018-05-06T03:55:04.085Z,46.20
2018-05-06T04:00:45.692Z,46.50
2018-05-06T04:03:13.631Z,46.30
2018-05-06T04:05:41.630Z,47.40
2018-05-06T04:08:09.569Z,47.40
2018-05-06T04:10:38.254Z,46.50
2018-05-06T04:13:06.121Z,46.50
2018-05-06T04:15:33.987Z,45.30
2018-05-06T04:18:01.854Z,45.80
2018-05-06T04:20:29.721Z,45.60
2018-05-06T04:22:57.592Z,45.80
2018-05-06T04:25:25.453Z,48.10
2018-05-06T04:27:53.321Z,45.10
2018-05-06T04:30:21.291Z,45.30
2018-05-06T04:32:49.259Z,45.40
2018-05-06T04:35:17.126Z,46.50
2018-05-06T04:37:44.991Z,47.40
2018-05-06T04:40:12.857Z,46.40
2018-05-06T04:42:40.725Z,47.40
2018-05-06T04:45:08.664Z,45.90
2018-05-06T04:47:36.559Z,46.90
2018-05-06T04:50:04.427Z,47.30
2018-05-06T04:52:32.295Z,47.30
2018-05-06T04:55:00.159Z,47.80
2018-05-06T04:57:27.956Z,47.70
2018-05-06T04:59:56.610Z,47.10
2018-05-06T05:02:24.476Z,47.00
2018-05-06T05:04:52.345Z,48.40
2018-05-06T05:07:20.212Z,47.00
2018-05-06T05:09:48.076Z,46.30
2018-05-06T05:12:15.942Z,47.20
2018-05-06T05:14:43.809Z,46.70
2018-05-06T05:17:11.675Z,48.10
2018-05-06T05:19:39.541Z,48.70
2018-05-06T05:22:07.408Z,48.10
2018-05-06T05:24:35.276Z,47.00
2018-05-06T05:27:03.141Z,47.70
2018-05-06T05:29:31.008Z,48.10
2018-05-06T05:31:58.875Z,48.20
2018-05-06T05:34:26.757Z,47.60
2018-05-06T05:36:54.539Z,46.90
2018-05-06T05:39:23.198Z,46.10
2018-05-06T05:41:51.057Z,46.10
2018-05-06T05:44:18.923Z,47.80
2018-05-06T05:46:46.790Z,46.70
2018-05-06T05:49:14.657Z,48.50
2018-05-06T05:51:42.523Z,46.80
2018-05-06T05:54:10.391Z,47.50
2018-05-06T05:56:38.257Z,46.70
2018-05-06T05:59:06.942Z,48.50
2018-05-06T06:01:34.896Z,48.50
2018-05-06T06:04:03.499Z,46.10
2018-05-06T06:06:31.362Z,46.10
2018-05-06T06:08:59.337Z,45.80
2018-05-06T06:11:27.298Z,47.50
2018-05-06T06:13:55.166Z,47.10
2018-05-06T06:16:22.931Z,46.50
2018-05-06T06:18:50.797Z,48.40
2018-05-06T06:21:18.663Z,46.20
2018-05-06T06:23:46.530Z,46.00
2018-05-06T06:26:14.396Z,46.80
2018-05-06T06:28:42.265Z,47.50
2018-05-06T06:31:10.198Z,46.70
2018-05-06T06:33:38.098Z,45.60
2018-05-06T06:36:05.965Z,46.90
2018-05-06T06:38:33.934Z,48.00
2018-05-06T06:41:01.801Z,49.40
2018-05-06T06:43:29.668Z,49.20
2018-05-06T06:45:57.533Z,49.30
2018-05-06T06:48:25.403Z,49.50
2018-05-06T06:50:53.266Z,46.40
2018-05-06T06:53:21.134Z,45.30
2018-05-06T06:55:49.085Z,44.80
2018-05-06T06:58:17.686Z,43.30
2018-05-06T07:00:45.555Z,43.20
2018-05-06T07:03:13.418Z,41.30
2018-05-06T07:05:41.287Z,38.10
2018-05-06T07:08:09.153Z,33.60
2018-05-06T07:10:37.022Z,30.20
2018-05-06T07:13:04.884Z,28.60
2018-05-06T07:15:32.751Z,26.80
2018-05-06T07:18:00.619Z,25.50
2018-05-06T07:20:28.485Z,24.70
2018-05-06T07:22:56.281Z,23.80
2018-05-06T07:25:24.218Z,23.50
2018-05-06T07:27:52.085Z,23.70
2018-05-06T07:30:20.053Z,23.10
2018-05-06T07:32:47.880Z,23.70
2018-05-06T07:35:15.786Z,24.00
2018-05-06T07:37:43.653Z,23.10
2018-05-06T07:40:11.621Z,22.30
2018-05-06T07:42:39.490Z,22.00
2018-05-06T07:45:07.356Z,21.40
2018-05-06T07:47:35.221Z,21.50
2018-05-06T07:50:03.190Z,21.00
2018-05-06T07:52:31.057Z,20.70
2018-05-06T07:54:58.820Z,21.10
2018-05-06T07:57:26.687Z,20.60
2018-05-06T07:59:54.528Z,20.50
2018-05-06T08:02:22.351Z,20.10
2018-05-06T08:04:50.185Z,19.50
2018-05-06T08:07:18.052Z,19.50
2018-05-06T08:09:45.845Z,18.70
2018-05-06T08:12:13.681Z,18.80
2018-05-06T08:14:41.553Z,19.30
2018-05-06T08:17:09.300Z,18.20
2018-05-06T08:19:37.180Z,17.80
2018-05-06T08:22:05.045Z,18.50
2018-05-06T08:24:33.015Z,17.60
2018-05-06T08:27:00.810Z,18.20
2018-05-06T08:29:29.465Z,17.90
2018-05-06T08:31:57.332Z,17.90
2018-05-06T08:34:25.128Z,17.50
2018-05-06T08:36:53.171Z,17.80
2018-05-06T08:39:21.074Z,18.20
2018-05-06T08:41:49.719Z,19.00
2018-05-06T08:44:17.586Z,18.80
2018-05-06T08:46:45.452Z,19.00
2018-05-06T08:49:13.397Z,18.80
2018-05-06T08:51:41.165Z,17.90
2018-05-06T08:54:08.938Z,17.30
2018-05-06T08:56:36.690Z,17.70
2018-05-06T08:59:04.472Z,17.50
2018-05-06T09:01:32.284Z,17.50
2018-05-06T09:04:00.830Z,16.80
2018-05-06T09:06:28.709Z,16.80
2018-05-06T09:08:57.438Z,17.50
2018-05-06T09:11:25.261Z,17.50
2018-05-06T09:13:53.024Z,17.50
2018-05-06T09:16:20.789Z,18.00
2018-05-06T09:18:48.553Z,17.20
2018-05-06T09:21:16.323Z,17.20
2018-05-06T09:23:44.138Z,17.00
2018-05-06T09:26:12.653Z,16.80
2018-05-06T09:28:40.421Z,16.80
2018-05-06T09:31:08.257Z,16.80
2018-05-06T09:33:36.077Z,16.50
2018-05-06T09:36:04.012Z,17.50
2018-05-06T09:38:31.882Z,17.30
2018-05-06T09:40:59.745Z,17.10
2018-05-06T09:43:27.612Z,17.50
2018-05-06T09:45:55.478Z,17.70
2018-05-06T09:48:23.346Z,17.60
2018-05-06T09:50:51.142Z,17.60
2018-05-06T09:53:19.077Z,17.60
2018-05-06T09:55:46.957Z,17.20
2018-05-06T09:58:14.811Z,17.20
2018-05-06T10:00:42.768Z,17.40
2018-05-06T10:03:10.534Z,16.70
2018-05-06T10:05:38.289Z,17.10
2018-05-06T10:08:06.203Z,17.30
2018-05-06T10:10:33.970Z,16.60
2018-05-06T10:13:01.729Z,17.30
2018-05-06T10:15:29.483Z,17.10
2018-05-06T10:17:57.252Z,17.20
2018-05-06T10:20:25.098Z,17.80
2018-05-06T10:22:52.966Z,18.70
2018-05-06T10:25:20.716Z,19.70
2018-05-06T10:27:48.469Z,19.90
2018-05-06T10:30:16.237Z,20.60
2018-05-06T10:32:43.998Z,21.20
2018-05-06T10:35:11.887Z,22.00
2018-05-06T10:37:39.758Z,22.70
2018-05-06T10:40:07.621Z,23.20
2018-05-06T10:42:35.487Z,24.60
2018-05-06T10:45:03.301Z,24.90
2018-05-06T10:47:31.821Z,26.10
2018-05-06T10:49:59.577Z,26.10
2018-05-06T10:52:27.381Z,26.10
2018-05-06T10:54:55.177Z,25.90
2018-05-06T10:57:23.733Z,26.40
2018-05-06T10:59:51.485Z,26.40
2018-05-06T11:02:19.247Z,27.50
2018-05-06T11:04:47.002Z,27.20
2018-05-06T11:07:14.753Z,26.90
2018-05-06T11:09:42.540Z,28.00
2018-05-06T11:12:10.310Z,26.90
2018-05-06T11:14:38.070Z,27.30
2018-05-06T11:17:05.852Z,27.50
2018-05-06T11:19:33.677Z,27.80
2018-05-06T11:22:01.433Z,27.60
2018-05-06T11:24:29.281Z,26.90
2018-05-06T11:26:57.081Z,28.50
2018-05-06T11:29:24.828Z,27.80
2018-05-06T11:31:52.657Z,27.80
2018-05-06T11:34:21.168Z,27.60
2018-05-06T11:36:48.920Z,27.50
2018-05-06T11:39:16.668Z,27.50
2018-05-06T11:41:45.195Z,28.20
2018-05-06T11:44:12.955Z,28.20
2018-05-06T11:46:40.745Z,28.70
2018-05-06T11:49:08.501Z,29.20
2018-05-06T11:51:36.251Z,29.40
2018-05-06T11:54:04.008Z,29.60
2018-05-06T11:56:31.776Z,29.70
2018-05-06T11:58:59.528Z,28.70
2018-05-06T12:01:27.332Z,29.00
2018-05-06T12:03:55.598Z,29.40
2018-05-06T12:06:23.920Z,28.60
2018-05-06T12:08:52.456Z,28.90
2018-05-06T12:11:21.141Z,28.80
2018-05-06T12:13:49.069Z,28.80
2018-05-06T12:16:16.820Z,29.70
2018-05-06T12:18:45.970Z,30.00
2018-05-06T12:21:13.719Z,29.90
2018-05-06T12:23:41.513Z,30.00
2018-05-06T12:26:09.273Z,29.80
2018-05-06T12:28:37.038Z,29.80
2018-05-06T12:31:04.809Z,30.30
2018-05-06T12:33:32.572Z,30.20
2018-05-06T12:36:00.390Z,30.40
2018-05-06T12:38:28.162Z,30.00
2018-05-06T12:40:55.922Z,30.10
2018-05-06T12:43:23.878Z,29.80
2018-05-06T12:45:52.502Z,30.20
2018-05-06T12:48:20.369Z,30.20
2018-05-06T12:50:48.440Z,30.00
2018-05-06T12:53:16.233Z,30.70
2018-05-06T12:55:44.072Z,31.10
2018-05-06T12:58:11.940Z,30.20
2018-05-06T13:00:39.701Z,29.80
2018-05-06T13:03:07.496Z,29.80
2018-05-06T13:05:35.333Z,29.90
2018-05-06T13:08:03.092Z,31.00
2018-05-06T13:10:30.963Z,30.60
2018-05-06T13:12:58.829Z,30.10
2018-05-06T13:15:26.696Z,30.00
2018-05-06T13:17:54.565Z,29.70
2018-05-06T13:20:22.531Z,30.50
2018-05-06T13:22:50.325Z,29.30
2018-05-06T13:25:19.595Z,29.50
2018-05-06T13:27:47.565Z,29.50
2018-05-06T13:30:15.430Z,29.80
2018-05-06T13:32:43.400Z,30.60
2018-05-06T13:35:11.296Z,30.30
2018-05-06T13:37:39.235Z,31.20
2018-05-06T13:40:07.102Z,32.20
2018-05-06T13:42:34.969Z,31.70
2018-05-06T13:45:02.759Z,31.00
2018-05-06T13:47:30.732Z,29.80
2018-05-06T13:49:58.681Z,29.30
2018-05-06T13:52:27.255Z,28.80
2018-05-06T13:54:55.121Z,28.80
2018-05-06T13:57:23.091Z,29.80
2018-05-06T13:59:50.956Z,28.80
2018-05-06T14:02:18.823Z,28.30
2018-05-06T14:04:46.615Z,29.50
2018-05-06T14:07:15.886Z,29.60
2018-05-06T14:09:43.757Z,29.60
2018-05-06T14:12:11.621Z,28.50
2018-05-06T14:14:39.487Z,28.90
2018-05-06T14:17:07.353Z,29.50
2018-05-06T14:19:35.220Z,29.80
2018-05-06T14:22:02.973Z,29.90
2018-05-06T14:24:30.777Z,30.40
2018-05-06T14:26:58.717Z,30.10
2018-05-06T14:29:26.587Z,30.10
2018-05-06T14:31:54.450Z,29.90
2018-05-06T14:34:22.318Z,30.00
2018-05-06T14:36:50.190Z,30.90
2018-05-06T14:39:17.981Z,30.20
2018-05-06T14:41:45.814Z,32.00
2018-05-06T14:44:13.680Z,31.20
2018-05-06T14:46:53.425Z,31.30
2018-05-06T14:49:21.186Z,30.70
2018-05-06T14:51:48.960Z,31.10
2018-05-06T14:54:16.820Z,32.00
2018-05-06T14:56:44.693Z,31.00
2018-05-06T14:59:13.941Z,31.20
2018-05-06T15:01:42.164Z,31.10
2018-05-06T15:04:09.909Z,31.10
2018-05-06T15:06:37.742Z,30.30
2018-05-06T15:09:06.292Z,31.70
2018-05-06T15:11:34.948Z,31.00
2018-05-06T15:14:03.296Z,31.50
2018-05-06T15:16:31.049Z,32.00
2018-05-06T15:18:59.573Z,32.20
2018-05-06T15:21:27.360Z,32.10
2018-05-06T15:23:55.143Z,32.80
2018-05-06T15:26:22.904Z,32.30
2018-05-06T15:28:50.722Z,31.50
2018-05-06T15:31:18.487Z,31.70
2018-05-06T15:33:46.304Z,31.40
2018-05-06T15:36:14.968Z,30.80
2018-05-06T15:38:42.725Z,30.70
2018-05-06T15:41:10.536Z,30.70
2018-05-06T15:43:39.203Z,31.90
2018-05-06T15:46:07.030Z,31.80
2018-05-06T15:48:34.799Z,32.20
2018-05-06T15:51:02.568Z,32.20
2018-05-06T15:53:30.340Z,32.40
2018-05-06T15:55:58.141Z,34.60
2018-05-06T15:58:26.883Z,32.90
2018-05-06T16:00:54.664Z,32.90
2018-05-06T16:03:34.077Z,33.30
2018-05-06T16:06:01.833Z,33.70
2018-05-06T16:08:29.590Z,34.50
2018-05-06T16:10:57.354Z,34.10
2018-05-06T16:13:25.105Z,34.50
2018-05-06T16:15:52.860Z,34.60
2018-05-06T16:18:20.893Z,35.00
2018-05-06T16:20:48.841Z,34.30
2018-05-06T16:23:16.592Z,35.30
2018-05-06T16:25:44.375Z,35.60
2018-05-06T16:28:12.158Z,35.80
2018-05-06T16:30:39.921Z,34.80
2018-05-06T16:33:07.696Z,35.30
2018-05-06T16:35:35.446Z,35.80
2018-05-06T16:38:03.237Z,35.20
2018-05-06T16:40:32.790Z,36.40
2018-05-06T16:43:00.558Z,36.40
2018-05-06T16:45:28.334Z,37.50
2018-05-06T16:47:56.088Z,38.30
2018-05-06T16:50:23.874Z,36.90
2018-05-06T16:52:51.633Z,38.80
2018-05-06T16:55:19.392Z,38.20
2018-05-06T16:57:47.156Z,39.00
2018-05-06T17:00:14.942Z,38.40
2018-05-06T17:02:43.490Z,39.40
2018-05-06T17:05:11.358Z,39.40
2018-05-06T17:07:39.174Z,39.20
2018-05-06T17:10:07.740Z,39.40
2018-05-06T17:12:36.521Z,39.40
2018-05-06T17:15:03.348Z,39.20
2018-05-06T17:17:31.121Z,40.30
2018-05-06T17:19:58.940Z,40.40
2018-05-06T17:22:26.701Z,42.00
2018-05-06T17:24:54.527Z,42.30
2018-05-06T17:27:22.333Z,42.30
2018-05-06T17:29:50.336Z,41.60
2018-05-06T17:32:18.615Z,44.00
2018-05-06T17:34:46.513Z,44.10
2018-05-06T17:37:14.739Z,46.20
2018-05-06T17:39:42.667Z,43.30
2018-05-06T17:42:11.397Z,44.10
2018-05-06T17:44:39.425Z,44.00
2018-05-06T17:47:08.267Z,44.60
2018-05-06T17:49:37.554Z,44.50
2018-05-06T17:52:05.470Z,45.50
2018-05-06T17:54:34.204Z,44.70
2018-05-06T17:57:02.305Z,44.70
2018-05-06T17:59:30.128Z,43.30
2018-05-06T18:01:57.990Z,44.00
2018-05-06T18:04:25.889Z,44.00
2018-05-06T18:06:53.767Z,43.30
2018-05-06T18:09:22.634Z,45.60
2018-05-06T18:11:50.724Z,44.90
2018-05-06T18:14:19.477Z,44.00
2018-05-06T18:16:47.280Z,43.90
2018-05-06T18:19:15.405Z,45.30
2018-05-06T18:21:44.237Z,45.90
2018-05-06T18:24:12.410Z,45.80
2018-05-06T18:26:40.206Z,43.80
2018-05-06T18:29:08.225Z,44.90
2018-05-06T18:31:36.402Z,43.60
2018-05-06T18:34:04.731Z,44.60
2018-05-06T18:36:33.817Z,44.50
2018-05-06T18:39:02.009Z,44.50
2018-05-06T18:41:30.853Z,44.30
2018-05-06T18:43:59.033Z,44.30
2018-05-06T18:46:27.156Z,45.70
2018-05-06T18:48:55.380Z,45.70
2018-05-06T18:51:24.131Z,43.60
2018-05-06T18:53:52.052Z,46.60
2018-05-06T18:56:20.317Z,46.70
2018-05-06T18:58:48.538Z,44.80
2018-05-06T19:01:16.378Z,44.30
2018-05-06T19:03:44.209Z,46.60
2018-05-06T19:06:12.785Z,47.20
2018-05-06T19:08:40.546Z,47.20
2018-05-06T19:11:08.317Z,45.90
2018-05-06T19:13:36.065Z,44.30
2018-05-06T19:16:03.839Z,45.50
2018-05-06T19:18:31.588Z,45.40
2018-05-06T19:20:59.344Z,45.20
2018-05-06T19:23:27.104Z,45.50
2018-05-06T19:25:54.929Z,46.10
2018-05-06T19:28:22.779Z,45.30
2018-05-06T19:30:50.532Z,46.10
2018-05-06T19:33:18.410Z,46.80
2018-05-06T19:35:46.165Z,46.40
2018-05-06T19:38:14.046Z,44.20
2018-05-06T19:40:42.565Z,45.80
2018-05-06T19:43:11.088Z,44.50
2018-05-06T19:45:38.856Z,44.50
2018-05-06T19:48:06.616Z,46.30
2018-05-06T19:50:34.392Z,46.10
2018-05-06T19:53:02.170Z,46.30
2018-05-06T19:55:30.631Z,47.50
2018-05-06T19:57:58.396Z,46.20
2018-05-06T20:00:26.173Z,46.60
2018-05-06T20:02:53.917Z,46.20
2018-05-06T20:05:21.677Z,45.50
2018-05-06T20:07:49.523Z,46.20
2018-05-06T20:10:17.273Z,46.70
2018-05-06T20:12:45.801Z,46.80
2018-05-06T20:15:13.545Z,46.90
2018-05-06T20:17:41.339Z,47.40
2018-05-06T20:20:09.088Z,47.10
2018-05-06T20:22:37.096Z,47.00
2018-05-06T20:25:04.897Z,46.10
2018-05-06T20:27:32.689Z,46.10
2018-05-06T20:30:00.484Z,45.70
2018-05-06T20:32:28.261Z,45.30
2018-05-06T20:34:56.051Z,46.60
2018-05-06T20:37:24.579Z,46.60
2018-05-06T20:39:52.446Z,46.50
2018-05-06T20:42:20.210Z,46.20
2018-05-06T20:44:47.983Z,46.00
2018-05-06T20:47:15.741Z,45.10
2018-05-06T20:49:43.501Z,47.50
2018-05-06T20:52:11.283Z,45.70
2018-05-06T20:54:39.032Z,45.60
2018-05-06T20:57:06.897Z,46.70
2018-05-06T20:59:34.765Z,47.80
2018-05-06T21:02:02.835Z,46.90
2018-05-06T21:04:31.299Z,46.40
2018-05-06T21:07:00.718Z,46.40
2018-05-06T21:09:28.605Z,45.80
2018-05-06T21:11:56.554Z,45.80
2018-05-06T21:14:25.407Z,46.20
2018-05-06T21:16:53.446Z,47.00
2018-05-06T21:19:22.100Z,47.50
2018-05-06T21:21:49.997Z,47.40
2018-05-06T21:24:17.935Z,47.40
2018-05-06T21:26:45.802Z,47.00
2018-05-06T21:29:13.573Z,48.20
2018-05-06T21:31:41.335Z,47.30
2018-05-06T21:34:09.090Z,46.80
2018-05-06T21:36:36.889Z,47.80
2018-05-06T21:39:05.713Z,47.10
2018-05-06T21:41:34.456Z,47.00
2018-05-06T21:44:02.223Z,46.70
2018-05-06T21:46:30.553Z,49.60
2018-05-06T21:48:59.092Z,47.50
2018-05-06T21:51:26.840Z,47.40
2018-05-06T21:53:54.605Z,48.70
2018-05-06T21:56:22.680Z,48.40
2018-05-06T21:58:51.733Z,47.60
2018-05-06T22:01:21.745Z,48.50
2018-05-06T22:03:50.317Z,48.70
2018-05-06T22:06:18.651Z,48.10
2018-05-06T22:08:46.539Z,48.30
2018-05-06T22:11:14.533Z,49.40
2018-05-06T22:13:42.991Z,48.30
2018-05-06T22:16:11.516Z,47.90
2018-05-06T22:18:39.930Z,47.90
2018-05-06T22:21:08.364Z,48.30
2018-05-06T22:23:36.640Z,49.50
2018-05-06T22:26:05.433Z,48.20
2018-05-06T22:28:33.665Z,49.10
2018-05-06T22:31:02.417Z,50.40
2018-05-06T22:33:31.381Z,49.70
2018-05-06T22:35:59.337Z,49.60
2018-05-06T22:38:27.082Z,49.70
2018-05-06T22:40:55.801Z,49.70
2018-05-06T22:43:24.337Z,49.70
2018-05-06T22:45:52.421Z,51.20
2018-05-06T22:48:20.960Z,50.70
2018-05-06T22:50:48.832Z,50.60
2018-05-06T22:53:16.690Z,51.10
2018-05-06T22:55:44.464Z,50.60
2018-05-06T22:58:12.326Z,51.10
2018-05-06T23:00:40.688Z,51.80
2018-05-06T23:03:08.456Z,52.30
2018-05-06T23:05:36.675Z,51.30
2018-05-06T23:08:04.612Z,51.50
2018-05-06T23:10:32.404Z,51.50
2018-05-06T23:13:01.064Z,51.70
2018-05-06T23:15:28.929Z,51.60
2018-05-06T23:17:56.796Z,51.80
2018-05-06T23:20:24.662Z,51.60
2018-05-06T23:22:52.428Z,51.20
2018-05-06T23:25:20.246Z,51.00
2018-05-06T23:27:48.160Z,51.30
2018-05-06T23:30:16.129Z,51.00
2018-05-06T23:32:43.999Z,51.00
2018-05-06T23:35:11.862Z,51.40
2018-05-06T23:37:40.548Z,52.70
2018-05-06T23:40:08.416Z,52.70
2018-05-06T23:42:36.281Z,52.60
2018-05-06T23:45:04.250Z,51.80
2018-05-06T23:47:32.117Z,52.00
2018-05-06T23:50:00.086Z,53.00
2018-05-06T23:52:27.952Z,53.00
2018-05-06T23:54:55.823Z,53.50
2018-05-06T23:57:23.686Z,53.30
2018-05-06T23:59:51.655Z,52.50
